sensor_id;sensor_type;location;lat;lon;timestamp;temperature;humidity
10233;DHT22;5161;48.174;11.756;2022-12-18T00:01:02;-2.20;95.70
10233;DHT22;5161;48.174;11.756;2022-12-18T00:03:32;-2.20;95.60
10233;DHT22;5161;48.174;11.756;2022-12-18T00:05:58;-2.30;95.70
10233;DHT22;5161;48.174;11.756;2022-12-18T00:08:24;-2.20;95.80
10233;DHT22;5161;48.174;11.756;2022-12-18T00:10:49;-2.20;96.10
10233;DHT22;5161;48.174;11.756;2022-12-18T00:13:15;-2.10;95.90
10233;DHT22;5161;48.174;11.756;2022-12-18T00:15:40;-2.10;95.90
10233;DHT22;5161;48.174;11.756;2022-12-18T00:18:06;-2.10;95.70
10233;DHT22;5161;48.174;11.756;2022-12-18T00:20:36;-2.20;96.00
10233;DHT22;5161;48.174;11.756;2022-12-18T00:23:02;-2.20;96.00
10233;DHT22;5161;48.174;11.756;2022-12-18T00:25:27;-2.20;95.90
10233;DHT22;5161;48.174;11.756;2022-12-18T00:27:53;-2.20;96.00
10233;DHT22;5161;48.174;11.756;2022-12-18T00:30:18;-2.30;96.20
10233;DHT22;5161;48.174;11.756;2022-12-18T00:32:44;-2.30;96.00
10233;DHT22;5161;48.174;11.756;2022-12-18T00:35:09;-2.20;96.30
10233;DHT22;5161;48.174;11.756;2022-12-18T00:37:35;-2.20;96.30
10233;DHT22;5161;48.174;11.756;2022-12-18T00:40:01;-2.30;96.30
10233;DHT22;5161;48.174;11.756;2022-12-18T00:42:27;-2.30;96.30
10233;DHT22;5161;48.174;11.756;2022-12-18T00:45:11;-2.30;96.40
10233;DHT22;5161;48.174;11.756;2022-12-18T00:47:37;-2.30;96.40
10233;DHT22;5161;48.174;11.756;2022-12-18T00:50:03;-2.30;96.50
10233;DHT22;5161;48.174;11.756;2022-12-18T00:52:28;-2.30;96.70
10233;DHT22;5161;48.174;11.756;2022-12-18T00:54:54;-2.20;96.50
10233;DHT22;5161;48.174;11.756;2022-12-18T00:57:19;-2.20;96.50
10233;DHT22;5161;48.174;11.756;2022-12-18T00:59:45;-2.20;96.50
10233;DHT22;5161;48.174;11.756;2022-12-18T01:02:13;-2.20;96.40
10233;DHT22;5161;48.174;11.756;2022-12-18T01:04:39;-2.20;96.50
10233;DHT22;5161;48.174;11.756;2022-12-18T01:07:04;-2.20;96.50
10233;DHT22;5161;48.174;11.756;2022-12-18T01:09:30;-2.20;96.50
10233;DHT22;5161;48.174;11.756;2022-12-18T01:11:55;-2.10;96.80
10233;DHT22;5161;48.174;11.756;2022-12-18T01:14:21;-2.10;96.80
10233;DHT22;5161;48.174;11.756;2022-12-18T01:16:47;-2.10;96.70
10233;DHT22;5161;48.174;11.756;2022-12-18T01:19:12;-2.10;96.90
10233;DHT22;5161;48.174;11.756;2022-12-18T01:21:38;-2.10;96.60
10233;DHT22;5161;48.174;11.756;2022-12-18T01:24:04;-2.20;97.00
10233;DHT22;5161;48.174;11.756;2022-12-18T01:26:30;-2.20;96.80
10233;DHT22;5161;48.174;11.756;2022-12-18T01:28:56;-2.10;96.90
10233;DHT22;5161;48.174;11.756;2022-12-18T01:31:27;-2.20;96.90
10233;DHT22;5161;48.174;11.756;2022-12-18T01:33:53;-2.10;97.00
10233;DHT22;5161;48.174;11.756;2022-12-18T01:36:30;-2.10;97.00
10233;DHT22;5161;48.174;11.756;2022-12-18T01:38:59;-2.10;97.10
10233;DHT22;5161;48.174;11.756;2022-12-18T01:41:28;-2.10;97.00
10233;DHT22;5161;48.174;11.756;2022-12-18T01:47:50;-2.10;97.30
10233;DHT22;5161;48.174;11.756;2022-12-18T01:50:17;-2.00;97.30
10233;DHT22;5161;48.174;11.756;2022-12-18T01:52:47;-2.10;97.10
10233;DHT22;5161;48.174;11.756;2022-12-18T01:55:17;-2.10;97.20
10233;DHT22;5161;48.174;11.756;2022-12-18T01:57:43;-2.10;97.20
10233;DHT22;5161;48.174;11.756;2022-12-18T02:00:16;-2.20;97.20
10233;DHT22;5161;48.174;11.756;2022-12-18T02:02:43;-2.10;97.40
10233;DHT22;5161;48.174;11.756;2022-12-18T02:05:11;-2.10;97.30
10233;DHT22;5161;48.174;11.756;2022-12-18T02:15:39;-2.10;97.50
10233;DHT22;5161;48.174;11.756;2022-12-18T02:18:36;-2.20;97.60
10233;DHT22;5161;48.174;11.756;2022-12-18T02:21:08;-2.20;97.70
10233;DHT22;5161;48.174;11.756;2022-12-18T02:26:20;-2.10;97.70
10233;DHT22;5161;48.174;11.756;2022-12-18T02:29:15;-2.00;97.70
10233;DHT22;5161;48.174;11.756;2022-12-18T02:31:51;-2.00;97.60
10233;DHT22;5161;48.174;11.756;2022-12-18T02:34:19;-2.10;97.60
10233;DHT22;5161;48.174;11.756;2022-12-18T02:36:48;-2.10;97.70
10233;DHT22;5161;48.174;11.756;2022-12-18T02:39:15;-2.00;97.70
10233;DHT22;5161;48.174;11.756;2022-12-18T02:41:41;-2.10;97.60
10233;DHT22;5161;48.174;11.756;2022-12-18T02:44:10;-2.10;97.80
10233;DHT22;5161;48.174;11.756;2022-12-18T02:46:42;-2.10;97.80
10233;DHT22;5161;48.174;11.756;2022-12-18T02:57:49;-2.00;98.10
10233;DHT22;5161;48.174;11.756;2022-12-18T03:00:26;-2.00;97.90
10233;DHT22;5161;48.174;11.756;2022-12-18T03:02:58;-2.00;98.10
10233;DHT22;5161;48.174;11.756;2022-12-18T03:05:32;-2.00;97.90
10233;DHT22;5161;48.174;11.756;2022-12-18T03:08:03;-2.00;97.90
10233;DHT22;5161;48.174;11.756;2022-12-18T03:10:33;-2.10;98.00
10233;DHT22;5161;48.174;11.756;2022-12-18T03:13:07;-2.00;98.10
10233;DHT22;5161;48.174;11.756;2022-12-18T03:15:39;-2.00;98.20
10233;DHT22;5161;48.174;11.756;2022-12-18T03:18:22;-2.00;98.00
10233;DHT22;5161;48.174;11.756;2022-12-18T03:20:50;-2.10;97.90
10233;DHT22;5161;48.174;11.756;2022-12-18T03:23:20;-2.10;98.00
10233;DHT22;5161;48.174;11.756;2022-12-18T03:25:49;-2.10;98.20
10233;DHT22;5161;48.174;11.756;2022-12-18T03:28:21;-2.10;98.30
10233;DHT22;5161;48.174;11.756;2022-12-18T03:30:49;-2.00;98.20
10233;DHT22;5161;48.174;11.756;2022-12-18T03:33:31;-2.10;98.20
10233;DHT22;5161;48.174;11.756;2022-12-18T03:36:00;-2.10;98.20
10233;DHT22;5161;48.174;11.756;2022-12-18T03:38:26;-2.10;98.30
10233;DHT22;5161;48.174;11.756;2022-12-18T03:41:15;-2.10;98.20
10233;DHT22;5161;48.174;11.756;2022-12-18T03:43:51;-2.10;98.30
10233;DHT22;5161;48.174;11.756;2022-12-18T03:49:25;-2.10;98.20
10233;DHT22;5161;48.174;11.756;2022-12-18T03:51:59;-2.10;98.50
10233;DHT22;5161;48.174;11.756;2022-12-18T03:54:27;-2.10;98.30
10233;DHT22;5161;48.174;11.756;2022-12-18T03:57:07;-2.10;98.30
10233;DHT22;5161;48.174;11.756;2022-12-18T03:59:35;-2.10;98.40
10233;DHT22;5161;48.174;11.756;2022-12-18T04:02:03;-2.10;98.40
10233;DHT22;5161;48.174;11.756;2022-12-18T04:04:31;-2.00;98.50
10233;DHT22;5161;48.174;11.756;2022-12-18T04:06:57;-2.00;98.40
10233;DHT22;5161;48.174;11.756;2022-12-18T04:09:24;-2.00;98.30
10233;DHT22;5161;48.174;11.756;2022-12-18T04:11:51;-2.10;98.40
10233;DHT22;5161;48.174;11.756;2022-12-18T04:14:17;-2.10;98.40
10233;DHT22;5161;48.174;11.756;2022-12-18T04:16:42;-2.00;98.50
10233;DHT22;5161;48.174;11.756;2022-12-18T04:19:08;-2.00;98.40
10233;DHT22;5161;48.174;11.756;2022-12-18T04:21:33;-2.10;98.50
10233;DHT22;5161;48.174;11.756;2022-12-18T04:23:59;-2.00;98.50
10233;DHT22;5161;48.174;11.756;2022-12-18T04:26:24;-2.00;98.50
10233;DHT22;5161;48.174;11.756;2022-12-18T04:28:50;-2.00;98.60
10233;DHT22;5161;48.174;11.756;2022-12-18T04:31:15;-1.90;98.60
10233;DHT22;5161;48.174;11.756;2022-12-18T04:33:41;-2.00;98.40
10233;DHT22;5161;48.174;11.756;2022-12-18T04:36:07;-2.00;98.40
10233;DHT22;5161;48.174;11.756;2022-12-18T04:38:32;-2.00;98.50
10233;DHT22;5161;48.174;11.756;2022-12-18T04:40:58;-1.90;98.70
10233;DHT22;5161;48.174;11.756;2022-12-18T04:43:23;-1.90;98.60
10233;DHT22;5161;48.174;11.756;2022-12-18T04:45:49;-1.90;98.60
10233;DHT22;5161;48.174;11.756;2022-12-18T04:48:15;-1.90;98.60
10233;DHT22;5161;48.174;11.756;2022-12-18T04:50:41;-1.90;98.70
10233;DHT22;5161;48.174;11.756;2022-12-18T04:53:06;-1.90;98.70
10233;DHT22;5161;48.174;11.756;2022-12-18T04:55:32;-1.90;98.80
10233;DHT22;5161;48.174;11.756;2022-12-18T04:57:58;-1.90;98.70
10233;DHT22;5161;48.174;11.756;2022-12-18T05:00:24;-1.90;98.70
10233;DHT22;5161;48.174;11.756;2022-12-18T05:02:50;-1.90;98.50
10233;DHT22;5161;48.174;11.756;2022-12-18T05:05:16;-2.00;98.50
10233;DHT22;5161;48.174;11.756;2022-12-18T05:07:41;-2.00;98.80
10233;DHT22;5161;48.174;11.756;2022-12-18T05:10:07;-2.00;98.80
10233;DHT22;5161;48.174;11.756;2022-12-18T05:12:33;-2.00;98.80
10233;DHT22;5161;48.174;11.756;2022-12-18T05:14:59;-2.00;98.70
10233;DHT22;5161;48.174;11.756;2022-12-18T05:17:24;-2.00;98.80
10233;DHT22;5161;48.174;11.756;2022-12-18T05:19:50;-2.00;99.00
10233;DHT22;5161;48.174;11.756;2022-12-18T05:22:15;-2.00;98.90
10233;DHT22;5161;48.174;11.756;2022-12-18T05:24:41;-1.90;98.80
10233;DHT22;5161;48.174;11.756;2022-12-18T05:27:07;-1.90;98.80
10233;DHT22;5161;48.174;11.756;2022-12-18T05:29:32;-2.00;98.80
10233;DHT22;5161;48.174;11.756;2022-12-18T05:31:58;-2.00;98.90
10233;DHT22;5161;48.174;11.756;2022-12-18T05:34:23;-1.90;99.00
10233;DHT22;5161;48.174;11.756;2022-12-18T05:36:49;-1.90;99.00
10233;DHT22;5161;48.174;11.756;2022-12-18T05:39:15;-1.90;98.90
10233;DHT22;5161;48.174;11.756;2022-12-18T05:41:40;-1.90;98.90
10233;DHT22;5161;48.174;11.756;2022-12-18T05:44:06;-1.90;98.90
10233;DHT22;5161;48.174;11.756;2022-12-18T05:46:32;-1.90;99.00
10233;DHT22;5161;48.174;11.756;2022-12-18T05:49:00;-1.90;99.00
10233;DHT22;5161;48.174;11.756;2022-12-18T05:51:26;-1.90;99.00
10233;DHT22;5161;48.174;11.756;2022-12-18T05:53:52;-2.00;98.90
10233;DHT22;5161;48.174;11.756;2022-12-18T05:56:19;-2.00;99.00
10233;DHT22;5161;48.174;11.756;2022-12-18T05:58:46;-2.00;99.10
10233;DHT22;5161;48.174;11.756;2022-12-18T06:01:15;-2.00;99.10
10233;DHT22;5161;48.174;11.756;2022-12-18T06:03:41;-1.90;99.30
10233;DHT22;5161;48.174;11.756;2022-12-18T06:08:39;-1.80;99.20
10233;DHT22;5161;48.174;11.756;2022-12-18T06:11:04;-1.90;99.10
10233;DHT22;5161;48.174;11.756;2022-12-18T06:13:30;-1.90;99.00
10233;DHT22;5161;48.174;11.756;2022-12-18T06:15:55;-1.90;99.00
10233;DHT22;5161;48.174;11.756;2022-12-18T06:18:21;-2.00;98.90
10233;DHT22;5161;48.174;11.756;2022-12-18T06:20:54;-2.10;99.00
10233;DHT22;5161;48.174;11.756;2022-12-18T06:23:21;-2.10;98.90
10233;DHT22;5161;48.174;11.756;2022-12-18T06:25:46;-2.10;99.10
10233;DHT22;5161;48.174;11.756;2022-12-18T06:28:12;-2.10;99.00
10233;DHT22;5161;48.174;11.756;2022-12-18T06:30:37;-2.20;99.20
10233;DHT22;5161;48.174;11.756;2022-12-18T06:33:03;-2.20;99.00
10233;DHT22;5161;48.174;11.756;2022-12-18T06:35:28;-2.20;99.20
10233;DHT22;5161;48.174;11.756;2022-12-18T06:37:54;-2.10;99.20
10233;DHT22;5161;48.174;11.756;2022-12-18T06:40:19;-2.20;99.10
10233;DHT22;5161;48.174;11.756;2022-12-18T06:42:45;-2.20;99.10
10233;DHT22;5161;48.174;11.756;2022-12-18T06:45:10;-2.20;99.20
10233;DHT22;5161;48.174;11.756;2022-12-18T06:47:36;-2.20;99.10
10233;DHT22;5161;48.174;11.756;2022-12-18T06:50:02;-2.10;99.20
10233;DHT22;5161;48.174;11.756;2022-12-18T06:52:28;-2.10;99.20
10233;DHT22;5161;48.174;11.756;2022-12-18T06:54:53;-2.10;99.10
10233;DHT22;5161;48.174;11.756;2022-12-18T06:57:19;-2.10;99.10
10233;DHT22;5161;48.174;11.756;2022-12-18T06:59:45;-2.00;99.10
10233;DHT22;5161;48.174;11.756;2022-12-18T07:02:12;-2.10;99.10
10233;DHT22;5161;48.174;11.756;2022-12-18T07:04:38;-2.10;99.10
10233;DHT22;5161;48.174;11.756;2022-12-18T07:07:03;-2.10;99.10
10233;DHT22;5161;48.174;11.756;2022-12-18T07:09:29;-2.00;99.10
10233;DHT22;5161;48.174;11.756;2022-12-18T07:11:54;-2.10;98.90
10233;DHT22;5161;48.174;11.756;2022-12-18T07:14:20;-2.10;99.20
10233;DHT22;5161;48.174;11.756;2022-12-18T07:16:45;-2.10;99.10
10233;DHT22;5161;48.174;11.756;2022-12-18T07:19:11;-2.00;99.40
10233;DHT22;5161;48.174;11.756;2022-12-18T07:21:36;-2.00;99.20
10233;DHT22;5161;48.174;11.756;2022-12-18T07:24:02;-2.00;99.00
10233;DHT22;5161;48.174;11.756;2022-12-18T07:26:28;-2.00;99.10
10233;DHT22;5161;48.174;11.756;2022-12-18T07:28:57;-2.00;99.10
10233;DHT22;5161;48.174;11.756;2022-12-18T07:31:24;-2.00;99.10
10233;DHT22;5161;48.174;11.756;2022-12-18T07:33:50;-2.10;99.20
10233;DHT22;5161;48.174;11.756;2022-12-18T07:36:16;-2.00;99.10
10233;DHT22;5161;48.174;11.756;2022-12-18T07:38:42;-2.10;99.00
10233;DHT22;5161;48.174;11.756;2022-12-18T07:41:11;-2.00;99.10
10233;DHT22;5161;48.174;11.756;2022-12-18T07:43:38;-2.10;98.90
10233;DHT22;5161;48.174;11.756;2022-12-18T07:46:04;-2.10;98.80
10233;DHT22;5161;48.174;11.756;2022-12-18T07:48:30;-2.20;98.90
10233;DHT22;5161;48.174;11.756;2022-12-18T07:51:00;-2.10;98.90
10233;DHT22;5161;48.174;11.756;2022-12-18T07:53:26;-2.20;98.90
10233;DHT22;5161;48.174;11.756;2022-12-18T07:55:56;-2.20;99.00
10233;DHT22;5161;48.174;11.756;2022-12-18T07:58:22;-2.20;98.90
10233;DHT22;5161;48.174;11.756;2022-12-18T08:00:48;-2.20;98.80
10233;DHT22;5161;48.174;11.756;2022-12-18T08:03:13;-2.20;98.80
10233;DHT22;5161;48.174;11.756;2022-12-18T08:05:39;-2.20;98.90
10233;DHT22;5161;48.174;11.756;2022-12-18T08:08:04;-2.20;98.90
10233;DHT22;5161;48.174;11.756;2022-12-18T08:10:30;-2.20;98.90
10233;DHT22;5161;48.174;11.756;2022-12-18T08:12:55;-2.20;98.80
10233;DHT22;5161;48.174;11.756;2022-12-18T08:15:21;-2.20;98.80
10233;DHT22;5161;48.174;11.756;2022-12-18T08:17:47;-2.20;98.80
10233;DHT22;5161;48.174;11.756;2022-12-18T08:20:12;-2.20;98.70
10233;DHT22;5161;48.174;11.756;2022-12-18T08:22:42;-2.20;98.80
10233;DHT22;5161;48.174;11.756;2022-12-18T08:25:08;-2.20;98.80
10233;DHT22;5161;48.174;11.756;2022-12-18T08:27:36;-2.20;98.80
10233;DHT22;5161;48.174;11.756;2022-12-18T08:30:24;-2.20;99.00
10233;DHT22;5161;48.174;11.756;2022-12-18T08:32:55;-2.10;98.90
10233;DHT22;5161;48.174;11.756;2022-12-18T08:35:22;-2.10;98.90
10233;DHT22;5161;48.174;11.756;2022-12-18T08:37:48;-2.10;98.80
10233;DHT22;5161;48.174;11.756;2022-12-18T08:40:13;-2.10;98.70
10233;DHT22;5161;48.174;11.756;2022-12-18T08:42:39;-2.00;98.70
10233;DHT22;5161;48.174;11.756;2022-12-18T08:45:23;-2.10;98.90
10233;DHT22;5161;48.174;11.756;2022-12-18T08:47:50;-2.10;98.60
10233;DHT22;5161;48.174;11.756;2022-12-18T08:50:16;-2.10;98.60
10233;DHT22;5161;48.174;11.756;2022-12-18T08:52:48;-2.20;98.60
10233;DHT22;5161;48.174;11.756;2022-12-18T08:55:13;-2.10;98.70
10233;DHT22;5161;48.174;11.756;2022-12-18T08:57:39;-2.10;98.70
10233;DHT22;5161;48.174;11.756;2022-12-18T09:00:05;-2.10;98.70
10233;DHT22;5161;48.174;11.756;2022-12-18T09:02:30;-2.10;98.80
10233;DHT22;5161;48.174;11.756;2022-12-18T09:04:57;-2.10;98.80
10233;DHT22;5161;48.174;11.756;2022-12-18T09:07:23;-2.10;98.90
10233;DHT22;5161;48.174;11.756;2022-12-18T09:09:48;-2.00;98.80
10233;DHT22;5161;48.174;11.756;2022-12-18T09:12:14;-2.00;98.70
10233;DHT22;5161;48.174;11.756;2022-12-18T09:14:39;-2.00;98.80
10233;DHT22;5161;48.174;11.756;2022-12-18T09:17:05;-1.90;98.70
10233;DHT22;5161;48.174;11.756;2022-12-18T09:19:30;-2.00;98.60
10233;DHT22;5161;48.174;11.756;2022-12-18T09:21:56;-2.00;98.80
10233;DHT22;5161;48.174;11.756;2022-12-18T09:24:25;-1.90;98.80
10233;DHT22;5161;48.174;11.756;2022-12-18T09:26:53;-1.90;98.80
10233;DHT22;5161;48.174;11.756;2022-12-18T09:29:20;-1.90;98.60
10233;DHT22;5161;48.174;11.756;2022-12-18T09:31:46;-2.00;98.60
10233;DHT22;5161;48.174;11.756;2022-12-18T09:34:12;-2.00;98.60
10233;DHT22;5161;48.174;11.756;2022-12-18T09:36:38;-2.00;98.60
10233;DHT22;5161;48.174;11.756;2022-12-18T09:39:03;-2.00;98.40
10233;DHT22;5161;48.174;11.756;2022-12-18T09:41:40;-2.00;98.50
10233;DHT22;5161;48.174;11.756;2022-12-18T09:49:58;-2.00;98.50
10233;DHT22;5161;48.174;11.756;2022-12-18T09:52:45;-2.00;98.60
10233;DHT22;5161;48.174;11.756;2022-12-18T09:55:25;-2.00;98.50
10233;DHT22;5161;48.174;11.756;2022-12-18T09:58:02;-2.00;98.30
10233;DHT22;5161;48.174;11.756;2022-12-18T10:00:30;-1.90;98.80
10233;DHT22;5161;48.174;11.756;2022-12-18T10:03:12;-1.90;98.70
10233;DHT22;5161;48.174;11.756;2022-12-18T10:05:48;-1.80;98.50
10233;DHT22;5161;48.174;11.756;2022-12-18T10:08:46;-1.90;98.50
10233;DHT22;5161;48.174;11.756;2022-12-18T10:22:38;-1.90;98.50
10233;DHT22;5161;48.174;11.756;2022-12-18T10:27:55;-1.70;98.50
10233;DHT22;5161;48.174;11.756;2022-12-18T10:30:23;-1.70;98.30
10233;DHT22;5161;48.174;11.756;2022-12-18T10:32:49;-1.80;98.30
10233;DHT22;5161;48.174;11.756;2022-12-18T10:35:22;-1.80;98.30
10233;DHT22;5161;48.174;11.756;2022-12-18T10:40:31;-1.80;98.50
10233;DHT22;5161;48.174;11.756;2022-12-18T10:43:14;-1.70;98.50
10233;DHT22;5161;48.174;11.756;2022-12-18T10:45:41;-1.70;98.70
10233;DHT22;5161;48.174;11.756;2022-12-18T10:48:20;-1.60;98.60
10233;DHT22;5161;48.174;11.756;2022-12-18T10:50:49;-1.60;98.30
10233;DHT22;5161;48.174;11.756;2022-12-18T10:53:29;-1.60;98.20
10233;DHT22;5161;48.174;11.756;2022-12-18T10:56:00;-1.70;98.40
10233;DHT22;5161;48.174;11.756;2022-12-18T10:58:33;-1.70;98.50
10233;DHT22;5161;48.174;11.756;2022-12-18T11:01:17;-1.70;98.30
10233;DHT22;5161;48.174;11.756;2022-12-18T11:06:18;-1.60;98.40
10233;DHT22;5161;48.174;11.756;2022-12-18T11:09:02;-1.60;98.20
10233;DHT22;5161;48.174;11.756;2022-12-18T11:11:28;-1.70;98.00
10233;DHT22;5161;48.174;11.756;2022-12-18T11:14:05;-1.70;98.20
10233;DHT22;5161;48.174;11.756;2022-12-18T11:16:42;-1.70;98.20
10233;DHT22;5161;48.174;11.756;2022-12-18T11:21:50;-1.60;98.20
10233;DHT22;5161;48.174;11.756;2022-12-18T11:24:25;-1.60;98.30
10233;DHT22;5161;48.174;11.756;2022-12-18T11:26:52;-1.60;98.10
10233;DHT22;5161;48.174;11.756;2022-12-18T11:29:23;-1.60;98.00
10233;DHT22;5161;48.174;11.756;2022-12-18T11:31:52;-1.60;98.20
10233;DHT22;5161;48.174;11.756;2022-12-18T11:34:34;-1.60;98.10
10233;DHT22;5161;48.174;11.756;2022-12-18T11:37:03;-1.60;98.30
10233;DHT22;5161;48.174;11.756;2022-12-18T11:39:42;-1.60;98.20
10233;DHT22;5161;48.174;11.756;2022-12-18T11:42:22;-1.50;98.30
10233;DHT22;5161;48.174;11.756;2022-12-18T11:48:04;-1.50;98.20
10233;DHT22;5161;48.174;11.756;2022-12-18T11:50:51;-1.50;98.10
10233;DHT22;5161;48.174;11.756;2022-12-18T11:53:17;-1.50;98.20
10233;DHT22;5161;48.174;11.756;2022-12-18T12:12:57;-1.40;98.30
10233;DHT22;5161;48.174;11.756;2022-12-18T12:21:07;-1.40;98.60
10233;DHT22;5161;48.174;11.756;2022-12-18T12:26:33;-1.30;98.50
10233;DHT22;5161;48.174;11.756;2022-12-18T12:32:07;-1.30;98.40
10233;DHT22;5161;48.174;11.756;2022-12-18T12:39:46;-1.20;98.50
10233;DHT22;5161;48.174;11.756;2022-12-18T12:42:33;-1.30;98.40
10233;DHT22;5161;48.174;11.756;2022-12-18T12:45:48;-1.30;98.50
10233;DHT22;5161;48.174;11.756;2022-12-18T12:51:11;-1.30;98.40
10233;DHT22;5161;48.174;11.756;2022-12-18T12:53:39;-1.30;98.50
10233;DHT22;5161;48.174;11.756;2022-12-18T12:56:08;-1.30;98.50
10233;DHT22;5161;48.174;11.756;2022-12-18T13:01:46;-1.30;98.50
10233;DHT22;5161;48.174;11.756;2022-12-18T13:04:20;-1.20;98.80
10233;DHT22;5161;48.174;11.756;2022-12-18T13:06:57;-1.30;98.50
10233;DHT22;5161;48.174;11.756;2022-12-18T13:09:30;-1.30;98.60
10233;DHT22;5161;48.174;11.756;2022-12-18T13:12:05;-1.30;98.50
10233;DHT22;5161;48.174;11.756;2022-12-18T13:14:52;-1.30;98.80
10233;DHT22;5161;48.174;11.756;2022-12-18T13:19:50;-1.30;98.70
10233;DHT22;5161;48.174;11.756;2022-12-18T13:22:25;-1.20;98.80
10233;DHT22;5161;48.174;11.756;2022-12-18T13:24:53;-1.30;98.60
10233;DHT22;5161;48.174;11.756;2022-12-18T13:38:23;-1.00;99.30
10233;DHT22;5161;48.174;11.756;2022-12-18T13:45:50;-1.10;98.80
10233;DHT22;5161;48.174;11.756;2022-12-18T13:48:26;-1.10;98.80
10233;DHT22;5161;48.174;11.756;2022-12-18T13:51:06;-1.20;98.70
10233;DHT22;5161;48.174;11.756;2022-12-18T13:53:46;-1.10;98.70
10233;DHT22;5161;48.174;11.756;2022-12-18T13:56:18;-1.20;98.70
10233;DHT22;5161;48.174;11.756;2022-12-18T13:58:46;-1.20;98.70
10233;DHT22;5161;48.174;11.756;2022-12-18T14:01:28;-1.20;98.70
10233;DHT22;5161;48.174;11.756;2022-12-18T14:04:09;-1.20;98.70
10233;DHT22;5161;48.174;11.756;2022-12-18T14:06:35;-1.20;98.70
10233;DHT22;5161;48.174;11.756;2022-12-18T14:09:02;-1.20;98.70
10233;DHT22;5161;48.174;11.756;2022-12-18T14:11:28;-1.30;98.40
10233;DHT22;5161;48.174;11.756;2022-12-18T14:13:54;-1.30;98.50
10233;DHT22;5161;48.174;11.756;2022-12-18T14:16:20;-1.40;98.50
10233;DHT22;5161;48.174;11.756;2022-12-18T14:19:08;-1.40;98.60
10233;DHT22;5161;48.174;11.756;2022-12-18T14:21:38;-1.40;98.80
10233;DHT22;5161;48.174;11.756;2022-12-18T14:24:14;-1.40;98.80
10233;DHT22;5161;48.174;11.756;2022-12-18T14:26:40;-1.40;98.80
10233;DHT22;5161;48.174;11.756;2022-12-18T14:29:28;-1.40;98.60
10233;DHT22;5161;48.174;11.756;2022-12-18T14:32:13;-1.50;98.70
10233;DHT22;5161;48.174;11.756;2022-12-18T14:34:49;-1.50;98.70
10233;DHT22;5161;48.174;11.756;2022-12-18T14:37:22;-1.50;98.90
10233;DHT22;5161;48.174;11.756;2022-12-18T14:39:59;-1.40;98.80
10233;DHT22;5161;48.174;11.756;2022-12-18T14:42:26;-1.40;98.70
10233;DHT22;5161;48.174;11.756;2022-12-18T14:47:59;-1.50;98.50
10233;DHT22;5161;48.174;11.756;2022-12-18T14:50:25;-1.50;98.60
10233;DHT22;5161;48.174;11.756;2022-12-18T14:52:54;-1.50;98.60
10233;DHT22;5161;48.174;11.756;2022-12-18T14:55:20;-1.60;98.50
10233;DHT22;5161;48.174;11.756;2022-12-18T14:57:51;-1.60;98.50
10233;DHT22;5161;48.174;11.756;2022-12-18T15:00:20;-1.60;98.60
10233;DHT22;5161;48.174;11.756;2022-12-18T15:02:49;-1.70;98.50
10233;DHT22;5161;48.174;11.756;2022-12-18T15:05:30;-1.70;98.60
10233;DHT22;5161;48.174;11.756;2022-12-18T15:07:58;-1.70;98.70
10233;DHT22;5161;48.174;11.756;2022-12-18T15:20:49;-1.70;98.70
10233;DHT22;5161;48.174;11.756;2022-12-18T15:23:24;-1.70;98.60
10233;DHT22;5161;48.174;11.756;2022-12-18T15:25:58;-1.80;98.60
10233;DHT22;5161;48.174;11.756;2022-12-18T15:28:28;-1.80;98.70
10233;DHT22;5161;48.174;11.756;2022-12-18T15:31:21;-1.80;98.60
10233;DHT22;5161;48.174;11.756;2022-12-18T15:36:19;-1.80;98.70
10233;DHT22;5161;48.174;11.756;2022-12-18T15:38:50;-1.80;98.70
10233;DHT22;5161;48.174;11.756;2022-12-18T15:41:20;-1.80;98.70
10233;DHT22;5161;48.174;11.756;2022-12-18T15:43:49;-1.80;98.70
10233;DHT22;5161;48.174;11.756;2022-12-18T15:46:17;-1.90;98.70
10233;DHT22;5161;48.174;11.756;2022-12-18T15:48:45;-1.90;98.70
10233;DHT22;5161;48.174;11.756;2022-12-18T15:51:20;-1.90;98.70
10233;DHT22;5161;48.174;11.756;2022-12-18T15:53:52;-1.90;98.80
10233;DHT22;5161;48.174;11.756;2022-12-18T15:56:18;-1.90;98.80
10233;DHT22;5161;48.174;11.756;2022-12-18T15:59:08;-1.90;98.80
10233;DHT22;5161;48.174;11.756;2022-12-18T16:01:35;-1.90;99.00
10233;DHT22;5161;48.174;11.756;2022-12-18T16:04:00;-1.90;98.70
10233;DHT22;5161;48.174;11.756;2022-12-18T16:06:26;-2.00;98.60
10233;DHT22;5161;48.174;11.756;2022-12-18T16:08:51;-2.00;98.80
10233;DHT22;5161;48.174;11.756;2022-12-18T16:11:26;-2.00;98.80
10233;DHT22;5161;48.174;11.756;2022-12-18T16:14:21;-2.00;98.60
10233;DHT22;5161;48.174;11.756;2022-12-18T16:16:50;-2.00;98.60
10233;DHT22;5161;48.174;11.756;2022-12-18T16:19:16;-2.00;98.80
10233;DHT22;5161;48.174;11.756;2022-12-18T16:21:42;-2.00;98.60
10233;DHT22;5161;48.174;11.756;2022-12-18T16:24:22;-2.10;98.60
10233;DHT22;5161;48.174;11.756;2022-12-18T16:26:48;-2.20;98.60
10233;DHT22;5161;48.174;11.756;2022-12-18T16:29:14;-2.20;98.80
10233;DHT22;5161;48.174;11.756;2022-12-18T16:31:40;-2.20;98.80
10233;DHT22;5161;48.174;11.756;2022-12-18T16:34:31;-2.20;99.00
10233;DHT22;5161;48.174;11.756;2022-12-18T16:37:01;-2.20;98.70
10233;DHT22;5161;48.174;11.756;2022-12-18T16:39:27;-2.20;98.70
10233;DHT22;5161;48.174;11.756;2022-12-18T16:41:53;-2.30;98.50
10233;DHT22;5161;48.174;11.756;2022-12-18T16:44:19;-2.30;98.50
10233;DHT22;5161;48.174;11.756;2022-12-18T16:46:46;-2.30;98.50
10233;DHT22;5161;48.174;11.756;2022-12-18T16:49:15;-2.40;98.40
10233;DHT22;5161;48.174;11.756;2022-12-18T16:51:41;-2.40;98.50
10233;DHT22;5161;48.174;11.756;2022-12-18T16:54:07;-2.40;98.60
10233;DHT22;5161;48.174;11.756;2022-12-18T16:56:33;-2.40;98.60
10233;DHT22;5161;48.174;11.756;2022-12-18T16:59:00;-2.40;98.50
10233;DHT22;5161;48.174;11.756;2022-12-18T17:01:27;-2.40;98.70
10233;DHT22;5161;48.174;11.756;2022-12-18T17:04:02;-2.40;98.70
10233;DHT22;5161;48.174;11.756;2022-12-18T17:06:30;-2.40;98.50
10233;DHT22;5161;48.174;11.756;2022-12-18T17:09:01;-2.50;98.50
10233;DHT22;5161;48.174;11.756;2022-12-18T17:11:29;-2.50;98.40
10233;DHT22;5161;48.174;11.756;2022-12-18T17:13:58;-2.50;98.70
10233;DHT22;5161;48.174;11.756;2022-12-18T17:16:24;-2.50;98.60
10233;DHT22;5161;48.174;11.756;2022-12-18T17:18:52;-2.50;99.00
10233;DHT22;5161;48.174;11.756;2022-12-18T17:21:18;-2.40;98.90
10233;DHT22;5161;48.174;11.756;2022-12-18T17:23:44;-2.40;98.60
10233;DHT22;5161;48.174;11.756;2022-12-18T17:26:11;-2.40;98.70
10233;DHT22;5161;48.174;11.756;2022-12-18T17:28:38;-2.40;98.70
10233;DHT22;5161;48.174;11.756;2022-12-18T17:31:17;-2.50;98.70
10233;DHT22;5161;48.174;11.756;2022-12-18T17:33:46;-2.50;98.40
10233;DHT22;5161;48.174;11.756;2022-12-18T17:36:17;-2.50;98.60
10233;DHT22;5161;48.174;11.756;2022-12-18T17:38:54;-2.50;98.50
10233;DHT22;5161;48.174;11.756;2022-12-18T17:41:24;-2.50;98.50
10233;DHT22;5161;48.174;11.756;2022-12-18T17:43:54;-2.50;98.50
10233;DHT22;5161;48.174;11.756;2022-12-18T17:46:20;-2.50;98.80
10233;DHT22;5161;48.174;11.756;2022-12-18T17:48:46;-2.40;98.80
10233;DHT22;5161;48.174;11.756;2022-12-18T17:51:13;-2.50;98.60
10233;DHT22;5161;48.174;11.756;2022-12-18T17:53:42;-2.50;98.60
10233;DHT22;5161;48.174;11.756;2022-12-18T17:56:30;-2.40;98.70
10233;DHT22;5161;48.174;11.756;2022-12-18T17:59:20;-2.50;98.50